sensor_id;sensor_type;location;lat;lon;timestamp;P1;durP1;ratioP1;P2;durP2;ratioP2
75169;SDS011;63749;49.186;9.222;2023-04-21T00:01:10;83.37;;;25.80;;
75169;SDS011;63749;49.186;9.222;2023-04-21T00:03:36;88.68;;;26.25;;
75169;SDS011;63749;49.186;9.222;2023-04-21T00:06:02;82.47;;;26.87;;
75169;SDS011;63749;49.186;9.222;2023-04-21T00:08:30;89.18;;;27.10;;
75169;SDS011;63749;49.186;9.222;2023-04-21T00:10:56;95.95;;;27.95;;
75169;SDS011;63749;49.186;9.222;2023-04-21T00:13:21;88.77;;;27.77;;
75169;SDS011;63749;49.186;9.222;2023-04-21T00:15:47;87.68;;;26.83;;
75169;SDS011;63749;49.186;9.222;2023-04-21T00:18:13;82.70;;;26.17;;
75169;SDS011;63749;49.186;9.222;2023-04-21T00:20:38;84.70;;;25.20;;
75169;SDS011;63749;49.186;9.222;2023-04-21T00:23:04;80.15;;;24.92;;
75169;SDS011;63749;49.186;9.222;2023-04-21T00:25:29;80.50;;;23.97;;
75169;SDS011;63749;49.186;9.222;2023-04-21T00:27:54;79.17;;;24.53;;
75169;SDS011;63749;49.186;9.222;2023-04-21T00:30:20;75.13;;;24.30;;
75169;SDS011;63749;49.186;9.222;2023-04-21T00:32:46;78.90;;;25.55;;
75169;SDS011;63749;49.186;9.222;2023-04-21T00:35:11;71.90;;;23.87;;
75169;SDS011;63749;49.186;9.222;2023-04-21T00:37:36;74.57;;;24.30;;
75169;SDS011;63749;49.186;9.222;2023-04-21T00:40:02;77.03;;;24.67;;
75169;SDS011;63749;49.186;9.222;2023-04-21T00:42:28;83.93;;;25.70;;
75169;SDS011;63749;49.186;9.222;2023-04-21T00:44:54;85.75;;;24.48;;
75169;SDS011;63749;49.186;9.222;2023-04-21T00:47:19;80.37;;;24.57;;
75169;SDS011;63749;49.186;9.222;2023-04-21T00:49:45;81.17;;;24.80;;
75169;SDS011;63749;49.186;9.222;2023-04-21T00:52:11;87.22;;;25.52;;
75169;SDS011;63749;49.186;9.222;2023-04-21T00:54:37;80.75;;;25.08;;
75169;SDS011;63749;49.186;9.222;2023-04-21T00:57:03;90.50;;;25.27;;
75169;SDS011;63749;49.186;9.222;2023-04-21T00:59:31;83.65;;;24.45;;
75169;SDS011;63749;49.186;9.222;2023-04-21T01:01:57;87.80;;;24.67;;
75169;SDS011;63749;49.186;9.222;2023-04-21T01:04:22;80.25;;;23.95;;
75169;SDS011;63749;49.186;9.222;2023-04-21T01:06:47;76.27;;;24.00;;
75169;SDS011;63749;49.186;9.222;2023-04-21T01:09:13;81.03;;;23.40;;
75169;SDS011;63749;49.186;9.222;2023-04-21T01:11:39;79.47;;;23.30;;
75169;SDS011;63749;49.186;9.222;2023-04-21T01:14:04;80.37;;;23.73;;
75169;SDS011;63749;49.186;9.222;2023-04-21T01:16:30;81.93;;;24.15;;
75169;SDS011;63749;49.186;9.222;2023-04-21T01:18:59;83.53;;;23.50;;
75169;SDS011;63749;49.186;9.222;2023-04-21T01:21:25;80.70;;;23.10;;
75169;SDS011;63749;49.186;9.222;2023-04-21T01:23:52;77.90;;;24.58;;
75169;SDS011;63749;49.186;9.222;2023-04-21T01:26:18;84.67;;;25.20;;
75169;SDS011;63749;49.186;9.222;2023-04-21T01:28:45;76.85;;;24.38;;
75169;SDS011;63749;49.186;9.222;2023-04-21T01:31:12;87.03;;;25.85;;
75169;SDS011;63749;49.186;9.222;2023-04-21T01:33:40;86.55;;;25.05;;
75169;SDS011;63749;49.186;9.222;2023-04-21T01:36:06;92.63;;;25.60;;
75169;SDS011;63749;49.186;9.222;2023-04-21T01:38:32;83.93;;;23.73;;
75169;SDS011;63749;49.186;9.222;2023-04-21T01:40:58;75.53;;;22.97;;
75169;SDS011;63749;49.186;9.222;2023-04-21T01:43:24;81.20;;;23.93;;
75169;SDS011;63749;49.186;9.222;2023-04-21T01:45:49;74.32;;;23.50;;
75169;SDS011;63749;49.186;9.222;2023-04-21T01:48:15;75.97;;;23.90;;
75169;SDS011;63749;49.186;9.222;2023-04-21T01:50:41;77.07;;;22.73;;
75169;SDS011;63749;49.186;9.222;2023-04-21T01:53:06;72.03;;;22.70;;
75169;SDS011;63749;49.186;9.222;2023-04-21T01:55:32;72.43;;;22.90;;
75169;SDS011;63749;49.186;9.222;2023-04-21T01:57:57;73.53;;;23.80;;
75169;SDS011;63749;49.186;9.222;2023-04-21T02:00:23;74.40;;;22.92;;
75169;SDS011;63749;49.186;9.222;2023-04-21T02:02:49;74.97;;;22.03;;
75169;SDS011;63749;49.186;9.222;2023-04-21T02:05:15;74.28;;;22.48;;
75169;SDS011;63749;49.186;9.222;2023-04-21T02:07:40;78.63;;;23.57;;
75169;SDS011;63749;49.186;9.222;2023-04-21T02:10:05;77.80;;;24.00;;
75169;SDS011;63749;49.186;9.222;2023-04-21T02:12:31;72.93;;;22.85;;
75169;SDS011;63749;49.186;9.222;2023-04-21T02:14:58;77.93;;;22.93;;
75169;SDS011;63749;49.186;9.222;2023-04-21T02:17:23;77.20;;;22.20;;
75169;SDS011;63749;49.186;9.222;2023-04-21T02:19:48;67.63;;;20.95;;
75169;SDS011;63749;49.186;9.222;2023-04-21T02:22:14;64.63;;;20.77;;
75169;SDS011;63749;49.186;9.222;2023-04-21T02:24:39;65.50;;;20.87;;
75169;SDS011;63749;49.186;9.222;2023-04-21T02:27:05;68.43;;;20.83;;
75169;SDS011;63749;49.186;9.222;2023-04-21T02:29:30;69.90;;;21.27;;
75169;SDS011;63749;49.186;9.222;2023-04-21T02:31:56;71.60;;;20.80;;
75169;SDS011;63749;49.186;9.222;2023-04-21T02:34:21;70.77;;;21.13;;
75169;SDS011;63749;49.186;9.222;2023-04-21T02:36:46;68.00;;;21.37;;
75169;SDS011;63749;49.186;9.222;2023-04-21T02:39:12;70.00;;;20.58;;
75169;SDS011;63749;49.186;9.222;2023-04-21T02:41:38;70.13;;;21.23;;
75169;SDS011;63749;49.186;9.222;2023-04-21T02:44:03;76.15;;;21.40;;
75169;SDS011;63749;49.186;9.222;2023-04-21T02:46:29;84.93;;;23.93;;
75169;SDS011;63749;49.186;9.222;2023-04-21T02:48:54;87.68;;;24.80;;
75169;SDS011;63749;49.186;9.222;2023-04-21T02:51:20;80.30;;;24.47;;
75169;SDS011;63749;49.186;9.222;2023-04-21T02:53:45;87.20;;;23.90;;
75169;SDS011;63749;49.186;9.222;2023-04-21T02:56:11;87.37;;;23.60;;
75169;SDS011;63749;49.186;9.222;2023-04-21T02:58:36;78.80;;;23.17;;
75169;SDS011;63749;49.186;9.222;2023-04-21T03:01:02;93.43;;;24.05;;
75169;SDS011;63749;49.186;9.222;2023-04-21T03:03:29;84.97;;;23.15;;
75169;SDS011;63749;49.186;9.222;2023-04-21T03:06:04;94.72;;;24.23;;
75169;SDS011;63749;49.186;9.222;2023-04-21T03:08:30;91.00;;;23.23;;
75169;SDS011;63749;49.186;9.222;2023-04-21T03:10:56;86.10;;;23.58;;
75169;SDS011;63749;49.186;9.222;2023-04-21T03:13:21;94.03;;;23.47;;
75169;SDS011;63749;49.186;9.222;2023-04-21T03:15:48;79.57;;;21.43;;
75169;SDS011;63749;49.186;9.222;2023-04-21T03:18:13;85.78;;;21.92;;
75169;SDS011;63749;49.186;9.222;2023-04-21T03:20:39;82.63;;;21.27;;
75169;SDS011;63749;49.186;9.222;2023-04-21T03:23:05;94.03;;;21.60;;
75169;SDS011;63749;49.186;9.222;2023-04-21T03:25:30;86.17;;;20.23;;
75169;SDS011;63749;49.186;9.222;2023-04-21T03:27:55;86.60;;;20.90;;
75169;SDS011;63749;49.186;9.222;2023-04-21T03:30:21;86.40;;;20.83;;
75169;SDS011;63749;49.186;9.222;2023-04-21T03:32:49;79.72;;;20.98;;
75169;SDS011;63749;49.186;9.222;2023-04-21T03:35:15;91.93;;;20.77;;
75169;SDS011;63749;49.186;9.222;2023-04-21T03:37:40;78.00;;;21.53;;
75169;SDS011;63749;49.186;9.222;2023-04-21T03:40:05;82.00;;;20.23;;
75169;SDS011;63749;49.186;9.222;2023-04-21T03:42:32;85.43;;;20.83;;
75169;SDS011;63749;49.186;9.222;2023-04-21T03:45:02;81.10;;;20.77;;
75169;SDS011;63749;49.186;9.222;2023-04-21T03:47:28;72.82;;;21.33;;
75169;SDS011;63749;49.186;9.222;2023-04-21T03:49:54;82.60;;;21.47;;
75169;SDS011;63749;49.186;9.222;2023-04-21T03:52:19;72.65;;;20.48;;
75169;SDS011;63749;49.186;9.222;2023-04-21T03:54:44;71.43;;;21.33;;
75169;SDS011;63749;49.186;9.222;2023-04-21T03:57:10;83.30;;;21.27;;
75169;SDS011;63749;49.186;9.222;2023-04-21T03:59:35;73.73;;;20.30;;
75169;SDS011;63749;49.186;9.222;2023-04-21T04:02:00;81.67;;;20.93;;
75169;SDS011;63749;49.186;9.222;2023-04-21T04:04:26;72.03;;;20.00;;
75169;SDS011;63749;49.186;9.222;2023-04-21T04:06:51;80.40;;;20.77;;
75169;SDS011;63749;49.186;9.222;2023-04-21T04:09:16;74.53;;;19.63;;
75169;SDS011;63749;49.186;9.222;2023-04-21T04:11:42;76.50;;;19.73;;
75169;SDS011;63749;49.186;9.222;2023-04-21T04:14:07;75.17;;;21.40;;
75169;SDS011;63749;49.186;9.222;2023-04-21T04:16:33;79.70;;;21.73;;
75169;SDS011;63749;49.186;9.222;2023-04-21T04:18:59;94.30;;;21.55;;
75169;SDS011;63749;49.186;9.222;2023-04-21T04:21:24;91.60;;;21.10;;
75169;SDS011;63749;49.186;9.222;2023-04-21T04:23:51;79.85;;;21.20;;
75169;SDS011;63749;49.186;9.222;2023-04-21T04:26:17;87.28;;;21.30;;
75169;SDS011;63749;49.186;9.222;2023-04-21T04:28:43;87.97;;;21.07;;
75169;SDS011;63749;49.186;9.222;2023-04-21T04:31:08;81.03;;;20.73;;
75169;SDS011;63749;49.186;9.222;2023-04-21T04:33:34;76.37;;;21.30;;
75169;SDS011;63749;49.186;9.222;2023-04-21T04:36:00;81.97;;;21.10;;
75169;SDS011;63749;49.186;9.222;2023-04-21T04:38:25;91.13;;;21.63;;
75169;SDS011;63749;49.186;9.222;2023-04-21T04:40:53;75.25;;;20.45;;
75169;SDS011;63749;49.186;9.222;2023-04-21T04:43:26;77.30;;;20.83;;
75169;SDS011;63749;49.186;9.222;2023-04-21T04:45:51;74.27;;;20.47;;
75169;SDS011;63749;49.186;9.222;2023-04-21T04:48:17;81.03;;;21.67;;
75169;SDS011;63749;49.186;9.222;2023-04-21T04:50:42;77.50;;;20.77;;
75169;SDS011;63749;49.186;9.222;2023-04-21T04:53:08;76.63;;;20.58;;
75169;SDS011;63749;49.186;9.222;2023-04-21T04:55:34;80.00;;;21.63;;
75169;SDS011;63749;49.186;9.222;2023-04-21T04:57:59;86.40;;;21.50;;
75169;SDS011;63749;49.186;9.222;2023-04-21T05:00:25;88.20;;;21.73;;
75169;SDS011;63749;49.186;9.222;2023-04-21T05:02:52;91.55;;;22.38;;
75169;SDS011;63749;49.186;9.222;2023-04-21T05:05:18;82.55;;;21.60;;
75169;SDS011;63749;49.186;9.222;2023-04-21T05:07:45;81.60;;;20.50;;
75169;SDS011;63749;49.186;9.222;2023-04-21T05:10:11;85.20;;;22.67;;
75169;SDS011;63749;49.186;9.222;2023-04-21T05:12:36;80.93;;;21.63;;
75169;SDS011;63749;49.186;9.222;2023-04-21T05:15:02;88.57;;;22.33;;
75169;SDS011;63749;49.186;9.222;2023-04-21T05:17:27;71.13;;;20.98;;
75169;SDS011;63749;49.186;9.222;2023-04-21T05:19:54;77.43;;;22.13;;
75169;SDS011;63749;49.186;9.222;2023-04-21T05:22:20;83.60;;;23.23;;
75169;SDS011;63749;49.186;9.222;2023-04-21T05:24:45;78.30;;;22.47;;
75169;SDS011;63749;49.186;9.222;2023-04-21T05:27:10;71.47;;;22.57;;
75169;SDS011;63749;49.186;9.222;2023-04-21T05:29:36;73.70;;;24.00;;
75169;SDS011;63749;49.186;9.222;2023-04-21T05:32:01;71.53;;;23.33;;
75169;SDS011;63749;49.186;9.222;2023-04-21T05:34:27;64.23;;;22.20;;
75169;SDS011;63749;49.186;9.222;2023-04-21T05:36:52;61.43;;;21.77;;
75169;SDS011;63749;49.186;9.222;2023-04-21T05:39:17;64.80;;;22.03;;
75169;SDS011;63749;49.186;9.222;2023-04-21T05:41:43;63.55;;;22.55;;
75169;SDS011;63749;49.186;9.222;2023-04-21T05:44:08;60.00;;;22.80;;
75169;SDS011;63749;49.186;9.222;2023-04-21T05:46:33;56.67;;;22.67;;
75169;SDS011;63749;49.186;9.222;2023-04-21T05:48:59;52.90;;;22.53;;
75169;SDS011;63749;49.186;9.222;2023-04-21T05:51:26;50.65;;;21.85;;
75169;SDS011;63749;49.186;9.222;2023-04-21T05:53:51;49.13;;;21.57;;
75169;SDS011;63749;49.186;9.222;2023-04-21T05:56:17;49.47;;;20.33;;
75169;SDS011;63749;49.186;9.222;2023-04-21T05:58:42;46.97;;;20.67;;
75169;SDS011;63749;49.186;9.222;2023-04-21T06:01:08;40.33;;;18.97;;
75169;SDS011;63749;49.186;9.222;2023-04-21T06:03:33;41.53;;;18.50;;
75169;SDS011;63749;49.186;9.222;2023-04-21T06:05:59;41.95;;;19.15;;
75169;SDS011;63749;49.186;9.222;2023-04-21T06:08:26;40.67;;;18.40;;
75169;SDS011;63749;49.186;9.222;2023-04-21T06:10:51;41.28;;;17.95;;
75169;SDS011;63749;49.186;9.222;2023-04-21T06:13:16;45.23;;;20.00;;
75169;SDS011;63749;49.186;9.222;2023-04-21T06:15:42;55.07;;;22.53;;
75169;SDS011;63749;49.186;9.222;2023-04-21T06:18:07;49.40;;;20.40;;
75169;SDS011;63749;49.186;9.222;2023-04-21T06:20:32;46.37;;;20.00;;
75169;SDS011;63749;49.186;9.222;2023-04-21T06:22:58;43.05;;;19.70;;
75169;SDS011;63749;49.186;9.222;2023-04-21T06:25:23;40.83;;;19.00;;
75169;SDS011;63749;49.186;9.222;2023-04-21T06:27:49;40.27;;;18.73;;
75169;SDS011;63749;49.186;9.222;2023-04-21T06:30:14;43.07;;;19.47;;
75169;SDS011;63749;49.186;9.222;2023-04-21T06:32:39;39.50;;;18.13;;
75169;SDS011;63749;49.186;9.222;2023-04-21T06:35:05;42.88;;;19.50;;
75169;SDS011;63749;49.186;9.222;2023-04-21T06:37:31;44.30;;;19.97;;
75169;SDS011;63749;49.186;9.222;2023-04-21T06:39:56;42.30;;;19.67;;
75169;SDS011;63749;49.186;9.222;2023-04-21T06:42:22;42.17;;;20.73;;
75169;SDS011;63749;49.186;9.222;2023-04-21T06:44:47;45.30;;;21.10;;
75169;SDS011;63749;49.186;9.222;2023-04-21T06:47:13;41.30;;;20.77;;
75169;SDS011;63749;49.186;9.222;2023-04-21T06:49:38;43.30;;;21.33;;
75169;SDS011;63749;49.186;9.222;2023-04-21T06:52:04;44.23;;;20.73;;
75169;SDS011;63749;49.186;9.222;2023-04-21T06:54:29;44.03;;;21.35;;
75169;SDS011;63749;49.186;9.222;2023-04-21T06:56:55;50.80;;;21.70;;
75169;SDS011;63749;49.186;9.222;2023-04-21T06:59:21;48.03;;;20.73;;
75169;SDS011;63749;49.186;9.222;2023-04-21T07:01:47;48.05;;;24.02;;
75169;SDS011;63749;49.186;9.222;2023-04-21T07:04:16;45.53;;;23.63;;
75169;SDS011;63749;49.186;9.222;2023-04-21T07:06:42;45.40;;;23.90;;
75169;SDS011;63749;49.186;9.222;2023-04-21T07:09:07;43.67;;;21.87;;
75169;SDS011;63749;49.186;9.222;2023-04-21T07:11:33;38.13;;;19.23;;
75169;SDS011;63749;49.186;9.222;2023-04-21T07:13:58;39.70;;;20.20;;
75169;SDS011;63749;49.186;9.222;2023-04-21T07:16:26;38.47;;;20.27;;
75169;SDS011;63749;49.186;9.222;2023-04-21T07:18:55;41.17;;;20.37;;
75169;SDS011;63749;49.186;9.222;2023-04-21T07:21:20;33.47;;;18.38;;
75169;SDS011;63749;49.186;9.222;2023-04-21T07:23:45;30.90;;;18.20;;
75169;SDS011;63749;49.186;9.222;2023-04-21T07:26:11;32.90;;;18.33;;
75169;SDS011;63749;49.186;9.222;2023-04-21T07:28:36;33.95;;;18.27;;
75169;SDS011;63749;49.186;9.222;2023-04-21T07:31:04;32.73;;;17.67;;
75169;SDS011;63749;49.186;9.222;2023-04-21T07:33:29;31.77;;;17.52;;
75169;SDS011;63749;49.186;9.222;2023-04-21T07:35:55;33.00;;;17.80;;
75169;SDS011;63749;49.186;9.222;2023-04-21T07:38:20;35.93;;;18.13;;
75169;SDS011;63749;49.186;9.222;2023-04-21T07:40:45;36.57;;;17.53;;
75169;SDS011;63749;49.186;9.222;2023-04-21T07:43:11;32.23;;;17.90;;
75169;SDS011;63749;49.186;9.222;2023-04-21T07:45:36;30.15;;;17.05;;
75169;SDS011;63749;49.186;9.222;2023-04-21T07:48:01;29.63;;;17.27;;
75169;SDS011;63749;49.186;9.222;2023-04-21T07:50:27;30.80;;;17.90;;
75169;SDS011;63749;49.186;9.222;2023-04-21T07:52:52;30.97;;;17.10;;
75169;SDS011;63749;49.186;9.222;2023-04-21T07:55:18;26.90;;;16.80;;
75169;SDS011;63749;49.186;9.222;2023-04-21T07:57:43;28.80;;;16.98;;
75169;SDS011;63749;49.186;9.222;2023-04-21T08:00:09;29.33;;;16.97;;
75169;SDS011;63749;49.186;9.222;2023-04-21T08:02:34;27.38;;;16.67;;
75169;SDS011;63749;49.186;9.222;2023-04-21T08:05:00;38.30;;;17.93;;
75169;SDS011;63749;49.186;9.222;2023-04-21T08:07:25;27.20;;;15.93;;
75169;SDS011;63749;49.186;9.222;2023-04-21T08:09:50;25.67;;;15.80;;
75169;SDS011;63749;49.186;9.222;2023-04-21T08:12:16;25.10;;;16.00;;
75169;SDS011;63749;49.186;9.222;2023-04-21T08:14:41;26.90;;;16.57;;
75169;SDS011;63749;49.186;9.222;2023-04-21T08:17:06;29.13;;;18.30;;
75169;SDS011;63749;49.186;9.222;2023-04-21T08:19:32;24.33;;;14.93;;
75169;SDS011;63749;49.186;9.222;2023-04-21T08:21:57;25.73;;;14.93;;
75169;SDS011;63749;49.186;9.222;2023-04-21T08:24:23;24.00;;;14.87;;
75169;SDS011;63749;49.186;9.222;2023-04-21T08:26:48;25.35;;;15.65;;
75169;SDS011;63749;49.186;9.222;2023-04-21T08:29:14;23.87;;;15.27;;
75169;SDS011;63749;49.186;9.222;2023-04-21T08:31:40;29.77;;;16.33;;
75169;SDS011;63749;49.186;9.222;2023-04-21T08:34:06;25.90;;;15.43;;
75169;SDS011;63749;49.186;9.222;2023-04-21T08:36:31;23.27;;;14.93;;
75169;SDS011;63749;49.186;9.222;2023-04-21T08:38:57;29.42;;;15.38;;
75169;SDS011;63749;49.186;9.222;2023-04-21T08:41:23;22.17;;;14.90;;
75169;SDS011;63749;49.186;9.222;2023-04-21T08:43:49;24.00;;;14.15;;
75169;SDS011;63749;49.186;9.222;2023-04-21T08:46:14;22.63;;;14.80;;
75169;SDS011;63749;49.186;9.222;2023-04-21T08:48:40;21.77;;;14.10;;
75169;SDS011;63749;49.186;9.222;2023-04-21T08:51:06;20.87;;;13.77;;
75169;SDS011;63749;49.186;9.222;2023-04-21T08:53:34;21.30;;;13.80;;
75169;SDS011;63749;49.186;9.222;2023-04-21T08:56:00;19.45;;;13.63;;
75169;SDS011;63749;49.186;9.222;2023-04-21T08:58:27;19.63;;;14.10;;
75169;SDS011;63749;49.186;9.222;2023-04-21T09:00:52;18.47;;;12.70;;
75169;SDS011;63749;49.186;9.222;2023-04-21T09:03:21;18.30;;;12.63;;
75169;SDS011;63749;49.186;9.222;2023-04-21T09:05:56;18.98;;;12.45;;
75169;SDS011;63749;49.186;9.222;2023-04-21T09:08:29;19.42;;;12.90;;
75169;SDS011;63749;49.186;9.222;2023-04-21T09:10:56;19.50;;;13.03;;
75169;SDS011;63749;49.186;9.222;2023-04-21T09:13:28;19.10;;;12.20;;
75169;SDS011;63749;49.186;9.222;2023-04-21T09:15:55;19.27;;;12.60;;
75169;SDS011;63749;49.186;9.222;2023-04-21T09:18:21;18.93;;;13.00;;
75169;SDS011;63749;49.186;9.222;2023-04-21T09:21:04;20.27;;;12.82;;
75169;SDS011;63749;49.186;9.222;2023-04-21T09:26:05;19.10;;;12.70;;
75169;SDS011;63749;49.186;9.222;2023-04-21T09:28:31;20.40;;;12.80;;
75169;SDS011;63749;49.186;9.222;2023-04-21T09:30:57;18.47;;;12.50;;
75169;SDS011;63749;49.186;9.222;2023-04-21T09:33:22;19.90;;;12.47;;
75169;SDS011;63749;49.186;9.222;2023-04-21T09:35:48;18.37;;;12.30;;
75169;SDS011;63749;49.186;9.222;2023-04-21T09:38:14;19.70;;;12.37;;
75169;SDS011;63749;49.186;9.222;2023-04-21T09:40:39;17.47;;;12.53;;
75169;SDS011;63749;49.186;9.222;2023-04-21T09:43:05;19.52;;;12.50;;
75169;SDS011;63749;49.186;9.222;2023-04-21T09:45:31;18.17;;;12.97;;
75169;SDS011;63749;49.186;9.222;2023-04-21T09:47:58;18.30;;;11.88;;
75169;SDS011;63749;49.186;9.222;2023-04-21T09:50:26;17.92;;;12.38;;
75169;SDS011;63749;49.186;9.222;2023-04-21T09:52:54;19.02;;;12.43;;
75169;SDS011;63749;49.186;9.222;2023-04-21T09:55:21;18.52;;;12.23;;
75169;SDS011;63749;49.186;9.222;2023-04-21T09:57:51;19.57;;;11.90;;
75169;SDS011;63749;49.186;9.222;2023-04-21T10:00:18;20.23;;;13.38;;
75169;SDS011;63749;49.186;9.222;2023-04-21T10:02:47;19.33;;;12.52;;
75169;SDS011;63749;49.186;9.222;2023-04-21T10:05:13;18.25;;;11.98;;
75169;SDS011;63749;49.186;9.222;2023-04-21T10:07:39;20.43;;;12.63;;
75169;SDS011;63749;49.186;9.222;2023-04-21T10:10:08;20.53;;;12.87;;
75169;SDS011;63749;49.186;9.222;2023-04-21T10:12:43;19.55;;;12.52;;
75169;SDS011;63749;49.186;9.222;2023-04-21T10:15:27;21.35;;;13.60;;
75169;SDS011;63749;49.186;9.222;2023-04-21T10:18:09;20.17;;;12.37;;
75169;SDS011;63749;49.186;9.222;2023-04-21T10:20:55;20.40;;;13.00;;
75169;SDS011;63749;49.186;9.222;2023-04-21T10:26:02;18.83;;;12.18;;
75169;SDS011;63749;49.186;9.222;2023-04-21T10:28:45;17.55;;;11.95;;
75169;SDS011;63749;49.186;9.222;2023-04-21T10:31:18;21.33;;;13.40;;
75169;SDS011;63749;49.186;9.222;2023-04-21T10:36:33;20.27;;;13.25;;
75169;SDS011;63749;49.186;9.222;2023-04-21T10:38:59;19.98;;;12.65;;
75169;SDS011;63749;49.186;9.222;2023-04-21T10:41:27;20.27;;;13.52;;
75169;SDS011;63749;49.186;9.222;2023-04-21T10:43:57;19.13;;;12.77;;
75169;SDS011;63749;49.186;9.222;2023-04-21T10:46:35;22.10;;;13.65;;
75169;SDS011;63749;49.186;9.222;2023-04-21T10:49:25;19.35;;;13.75;;
75169;SDS011;63749;49.186;9.222;2023-04-21T10:54:29;19.65;;;13.90;;
75169;SDS011;63749;49.186;9.222;2023-04-21T10:57:01;19.80;;;12.50;;
75169;SDS011;63749;49.186;9.222;2023-04-21T10:59:29;19.52;;;13.52;;
75169;SDS011;63749;49.186;9.222;2023-04-21T11:01:54;20.27;;;13.90;;
75169;SDS011;63749;49.186;9.222;2023-04-21T11:04:21;18.42;;;13.02;;
75169;SDS011;63749;49.186;9.222;2023-04-21T11:09:34;17.77;;;12.27;;
75169;SDS011;63749;49.186;9.222;2023-04-21T11:12:02;19.73;;;13.10;;
75169;SDS011;63749;49.186;9.222;2023-04-21T11:14:31;24.70;;;13.65;;
75169;SDS011;63749;49.186;9.222;2023-04-21T11:16:56;17.67;;;13.00;;
75169;SDS011;63749;49.186;9.222;2023-04-21T11:19:22;18.35;;;13.57;;
75169;SDS011;63749;49.186;9.222;2023-04-21T11:21:52;18.57;;;12.77;;
75169;SDS011;63749;49.186;9.222;2023-04-21T11:24:21;20.60;;;14.57;;
75169;SDS011;63749;49.186;9.222;2023-04-21T11:26:46;19.42;;;14.50;;
75169;SDS011;63749;49.186;9.222;2023-04-21T11:29:12;17.50;;;13.40;;
75169;SDS011;63749;49.186;9.222;2023-04-21T11:31:39;19.40;;;14.25;;
75169;SDS011;63749;49.186;9.222;2023-04-21T11:34:06;19.55;;;14.73;;
75169;SDS011;63749;49.186;9.222;2023-04-21T11:36:35;17.53;;;13.53;;
75169;SDS011;63749;49.186;9.222;2023-04-21T11:39:07;17.85;;;12.85;;
75169;SDS011;63749;49.186;9.222;2023-04-21T11:41:35;17.88;;;12.07;;
75169;SDS011;63749;49.186;9.222;2023-04-21T11:44:02;16.92;;;11.35;;
75169;SDS011;63749;49.186;9.222;2023-04-21T11:46:28;15.63;;;11.60;;
75169;SDS011;63749;49.186;9.222;2023-04-21T11:48:57;14.07;;;10.63;;
75169;SDS011;63749;49.186;9.222;2023-04-21T11:51:22;15.15;;;11.40;;
75169;SDS011;63749;49.186;9.222;2023-04-21T11:53:48;14.33;;;11.23;;
75169;SDS011;63749;49.186;9.222;2023-04-21T11:56:17;15.47;;;11.67;;
75169;SDS011;63749;49.186;9.222;2023-04-21T11:58:45;15.68;;;10.57;;
75169;SDS011;63749;49.186;9.222;2023-04-21T12:01:15;15.65;;;11.07;;
75169;SDS011;63749;49.186;9.222;2023-04-21T12:03:41;14.60;;;11.07;;
75169;SDS011;63749;49.186;9.222;2023-04-21T12:06:06;14.32;;;11.02;;
75169;SDS011;63749;49.186;9.222;2023-04-21T12:08:32;13.73;;;10.73;;
75169;SDS011;63749;49.186;9.222;2023-04-21T12:10:58;12.85;;;9.52;;
75169;SDS011;63749;49.186;9.222;2023-04-21T12:13:24;13.40;;;10.17;;
75169;SDS011;63749;49.186;9.222;2023-04-21T12:15:52;14.55;;;10.48;;
75169;SDS011;63749;49.186;9.222;2023-04-21T12:18:17;16.40;;;10.70;;
75169;SDS011;63749;49.186;9.222;2023-04-21T12:20:49;13.73;;;10.53;;
75169;SDS011;63749;49.186;9.222;2023-04-21T12:23:16;13.27;;;10.13;;
75169;SDS011;63749;49.186;9.222;2023-04-21T12:25:42;14.90;;;10.48;;
75169;SDS011;63749;49.186;9.222;2023-04-21T12:28:09;13.68;;;10.15;;
75169;SDS011;63749;49.186;9.222;2023-04-21T12:30:35;16.20;;;11.70;;
75169;SDS011;63749;49.186;9.222;2023-04-21T12:33:00;15.43;;;10.80;;
75169;SDS011;63749;49.186;9.222;2023-04-21T12:35:25;16.40;;;11.57;;
75169;SDS011;63749;49.186;9.222;2023-04-21T12:37:51;14.95;;;11.40;;
75169;SDS011;63749;49.186;9.222;2023-04-21T12:40:16;14.80;;;11.07;;
75169;SDS011;63749;49.186;9.222;2023-04-21T12:42:42;16.77;;;12.30;;
75169;SDS011;63749;49.186;9.222;2023-04-21T12:45:07;17.17;;;11.88;;
75169;SDS011;63749;49.186;9.222;2023-04-21T12:47:34;15.43;;;11.70;;
75169;SDS011;63749;49.186;9.222;2023-04-21T12:50:00;16.23;;;12.60;;
75169;SDS011;63749;49.186;9.222;2023-04-21T12:52:26;16.73;;;12.73;;
75169;SDS011;63749;49.186;9.222;2023-04-21T12:54:51;14.75;;;11.82;;
75169;SDS011;63749;49.186;9.222;2023-04-21T12:57:16;15.67;;;12.70;;
75169;SDS011;63749;49.186;9.222;2023-04-21T12:59:42;15.07;;;12.30;;
75169;SDS011;63749;49.186;9.222;2023-04-21T13:02:07;15.45;;;13.27;;
75169;SDS011;63749;49.186;9.222;2023-04-21T13:04:33;16.23;;;13.10;;
75169;SDS011;63749;49.186;9.222;2023-04-21T13:06:59;17.35;;;12.68;;
75169;SDS011;63749;49.186;9.222;2023-04-21T13:09:24;16.43;;;12.50;;
75169;SDS011;63749;49.186;9.222;2023-04-21T13:11:50;13.60;;;11.23;;
75169;SDS011;63749;49.186;9.222;2023-04-21T13:14:16;12.40;;;10.70;;
75169;SDS011;63749;49.186;9.222;2023-04-21T13:16:42;17.48;;;13.10;;
75169;SDS011;63749;49.186;9.222;2023-04-21T13:19:07;15.03;;;13.27;;
75169;SDS011;63749;49.186;9.222;2023-04-21T13:21:33;16.58;;;13.48;;
75169;SDS011;63749;49.186;9.222;2023-04-21T13:23:58;16.73;;;14.23;;
75169;SDS011;63749;49.186;9.222;2023-04-21T13:26:23;15.60;;;13.90;;
75169;SDS011;63749;49.186;9.222;2023-04-21T13:28:49;14.73;;;12.35;;
75169;SDS011;63749;49.186;9.222;2023-04-21T13:31:15;15.13;;;12.87;;
75169;SDS011;63749;49.186;9.222;2023-04-21T13:33:41;14.45;;;12.57;;
75169;SDS011;63749;49.186;9.222;2023-04-21T13:36:06;13.77;;;11.37;;
75169;SDS011;63749;49.186;9.222;2023-04-21T13:38:33;13.05;;;11.13;;
75169;SDS011;63749;49.186;9.222;2023-04-21T13:40:58;11.93;;;10.67;;
75169;SDS011;63749;49.186;9.222;2023-04-21T13:43:24;12.27;;;10.98;;
75169;SDS011;63749;49.186;9.222;2023-04-21T13:45:50;10.70;;;9.60;;
75169;SDS011;63749;49.186;9.222;2023-04-21T13:48:17;11.00;;;9.90;;
75169;SDS011;63749;49.186;9.222;2023-04-21T13:50:44;10.93;;;9.80;;
75169;SDS011;63749;49.186;9.222;2023-04-21T13:53:09;12.43;;;10.57;;
75169;SDS011;63749;49.186;9.222;2023-04-21T13:55:35;11.10;;;9.87;;
75169;SDS011;63749;49.186;9.222;2023-04-21T13:58:00;10.75;;;9.60;;
75169;SDS011;63749;49.186;9.222;2023-04-21T14:00:26;13.00;;;9.63;;
75169;SDS011;63749;49.186;9.222;2023-04-21T14:02:51;11.63;;;10.43;;
75169;SDS011;63749;49.186;9.222;2023-04-21T14:05:17;10.67;;;9.57;;
75169;SDS011;63749;49.186;9.222;2023-04-21T14:07:42;10.50;;;9.40;;
75169;SDS011;63749;49.186;9.222;2023-04-21T14:10:08;11.57;;;9.73;;
75169;SDS011;63749;49.186;9.222;2023-04-21T14:12:34;11.20;;;9.43;;
75169;SDS011;63749;49.186;9.222;2023-04-21T14:14:59;12.30;;;11.10;;
75169;SDS011;63749;49.186;9.222;2023-04-21T14:17:25;12.73;;;11.43;;
75169;SDS011;63749;49.186;9.222;2023-04-21T14:19:50;14.57;;;11.30;;
75169;SDS011;63749;49.186;9.222;2023-04-21T14:22:16;13.20;;;10.17;;
75169;SDS011;63749;49.186;9.222;2023-04-21T14:24:41;10.03;;;9.03;;
75169;SDS011;63749;49.186;9.222;2023-04-21T14:27:07;9.63;;;8.50;;
75169;SDS011;63749;49.186;9.222;2023-04-21T14:29:32;10.30;;;8.93;;